KAXV/AXV METAR and TAF weather

Enter ICAO airport designator
Station Type Date Time Source
KAXV METAR 2021/03/09 10:15 UTC NOAA

KAXV 091015Z AUTO 22005KT 10SM CLR 05/00 A3036 RMK AO2


Station Type Date Time Source
KAXV Decoded METAR 2021/03/09 10:15 UTC NOAA

Station name not available
Mar 09, 2021 - 05:15 AM EST / 2021.03.09 1015 UTC
Wind: from the SW (220 degrees) at 6 MPH (5 KT):0
Visibility: 10 mile(s):0
Sky conditions: clear
Temperature: 41 F (5 C)
Dew Point: 32 F (0 C)
Relative Humidity: 70%
Pressure (altimeter): 30.36 in. Hg (1028 hPa)
ob: KAXV 091015Z AUTO 22005KT 10SM CLR 05/00 A3036 RMK AO2
cycle: 10

Station Type Date Time Source
KAXV TAF UTC NOAA

Error!

Example: see airport list